Time;durP1;ratioP1;P1;durP2;ratioP2;P2;SDS_P1;SDS_P2;PMS_P1;PMS_P2;Temp;Humidity;BMP_temperature;BMP_pressure;BME280_temperature;BME280_humidity;BME280_pressure;Samples;Min_cycle;Max_cycle;Signal;HPM_P1;HPM_P2
2023/08/25 00:00:59;;;;;;;5.33;3.77;;;21.50;99.90;;;;;;5076231;28;20519;-59
2023/08/25 00:03:26;;;;;;;3.53;3.20;;;21.50;99.90;;;;;;5076299;28;20823;-59
2023/08/25 00:05:53;;;;;;;6.93;3.67;;;21.40;99.90;;;;;;5076442;28;20440;-60
2023/08/25 00:08:20;;;;;;;3.77;3.00;;;21.40;99.90;;;;;;5076672;28;20519;-60
2023/08/25 00:10:46;;;;;;;5.23;3.13;;;21.40;99.90;;;;;;5076318;28;20452;-60
2023/08/25 00:13:15;;;;;;;5.70;3.10;;;21.40;99.90;;;;;;5076168;28;20444;-60
2023/08/25 00:15:44;;;;;;;5.80;3.60;;;21.40;99.90;;;;;;5076161;28;20452;-60
2023/08/25 00:18:10;;;;;;;4.90;3.10;;;21.40;99.90;;;;;;5076097;28;20443;-60
2023/08/25 00:20:37;;;;;;;4.20;3.27;;;21.40;99.90;;;;;;5076022;28;20441;-60
2023/08/25 00:23:04;;;;;;;3.73;3.33;;;21.40;99.90;;;;;;5074900;28;20445;-60
2023/08/25 00:25:31;;;;;;;3.70;2.70;;;21.40;99.90;;;;;;5076111;28;20447;-60
2023/08/25 00:27:58;;;;;;;6.77;3.90;;;21.40;99.90;;;;;;5075789;28;20439;-60
2023/08/25 00:30:26;;;;;;;5.70;3.50;;;21.40;99.90;;;;;;5075730;28;20499;-60
2023/08/25 00:32:53;;;;;;;5.53;2.77;;;21.30;99.90;;;;;;5075487;28;21019;-59
2023/08/25 00:35:20;;;;;;;4.70;3.10;;;21.30;99.90;;;;;;5075725;28;20437;-59
2023/08/25 00:37:46;;;;;;;5.10;3.23;;;21.40;99.90;;;;;;5075541;28;20444;-59
2023/08/25 00:40:13;;;;;;;3.67;2.53;;;21.30;99.90;;;;;;5075544;28;20452;-59
2023/08/25 00:42:40;;;;;;;4.33;2.80;;;21.40;99.90;;;;;;5075159;28;20982;-59
2023/08/25 00:45:07;;;;;;;3.40;3.10;;;21.40;99.90;;;;;;5075048;28;20942;-59
2023/08/25 00:47:35;;;;;;;3.67;3.10;;;21.40;99.90;;;;;;5075423;28;20448;-59
2023/08/25 00:50:03;;;;;;;7.60;2.73;;;21.40;99.90;;;;;;5075366;28;20507;-59
2023/08/25 00:52:30;;;;;;;7.57;3.57;;;21.40;99.90;;;;;;5075224;28;20496;-59
2023/08/25 00:54:58;;;;;;;2.77;2.50;;;21.40;99.90;;;;;;5075224;28;20443;-59
2023/08/25 00:57:25;;;;;;;6.13;3.00;;;21.40;99.90;;;;;;5075252;28;20452;-59
2023/08/25 00:59:52;;;;;;;4.93;3.23;;;21.30;99.90;;;;;;5075461;28;20437;-59
2023/08/25 01:02:19;;;;;;;6.57;5.10;;;21.30;99.90;;;;;;5074776;28;20468;-59
2023/08/25 01:04:47;;;;;;;8.30;4.47;;;21.30;99.90;;;;;;5075041;28;20491;-59
2023/08/25 01:07:14;;;;;;;9.13;4.00;;;21.30;99.90;;;;;;5075293;28;20453;-59
2023/08/25 01:09:41;;;;;;;6.83;4.53;;;21.30;99.90;;;;;;5074899;28;20483;-59
2023/08/25 01:12:17;;;;;;;4.40;4.00;;;21.20;99.90;;;;;;5075268;28;20504;-59
2023/08/25 01:14:51;;;;;;;4.43;4.00;;;21.20;99.90;;;;;;5074818;28;20516;-59
2023/08/25 01:17:25;;;;;;;6.97;4.83;;;21.10;99.90;;;;;;5074851;28;20428;-59
2023/08/25 01:19:58;;;;;;;6.27;4.47;;;21.10;99.90;;;;;;5074486;28;20433;-59
2023/08/25 01:22:33;;;;;;;4.80;4.40;;;20.90;99.90;;;;;;5074352;28;20483;-59
2023/08/25 01:25:23;;;;;;;4.50;4.10;;;20.90;99.90;;;;;;5074749;28;20482;-59
2023/08/25 01:27:50;;;;;;;5.93;4.40;;;20.90;99.90;;;;;;5074366;28;20930;-59
2023/08/25 01:30:17;;;;;;;6.57;4.70;;;20.80;99.90;;;;;;5074137;28;21019;-59
2023/08/25 01:32:44;;;;;;;7.73;4.60;;;20.80;99.90;;;;;;5074107;28;20464;-59
2023/08/25 01:35:14;;;;;;;7.67;4.77;;;20.90;99.90;;;;;;5073997;28;20449;-59
2023/08/25 01:37:48;;;;;;;6.03;4.33;;;20.90;99.90;;;;;;5074090;28;20433;-59
2023/08/25 01:40:28;;;;;;;10.60;4.50;;;20.80;99.90;;;;;;5074030;28;20425;-59
2023/08/25 01:42:56;;;;;;;9.57;4.40;;;20.90;99.90;;;;;;5074309;28;20465;-59
2023/08/25 01:45:24;;;;;;;7.87;4.50;;;20.90;99.90;;;;;;5074159;28;20441;-59
2023/08/25 01:47:53;;;;;;;9.13;4.80;;;20.90;99.90;;;;;;5074149;28;20483;-59
2023/08/25 01:50:21;;;;;;;6.23;4.67;;;20.80;99.90;;;;;;5074213;28;20476;-59
2023/08/25 01:52:49;;;;;;;6.50;4.90;;;20.80;99.90;;;;;;5073982;28;20457;-59
2023/08/25 01:55:17;;;;;;;9.17;5.13;;;20.80;99.90;;;;;;5073903;28;20440;-59
2023/08/25 01:57:44;;;;;;;8.10;5.03;;;20.80;99.90;;;;;;5073692;28;20447;-59
2023/08/25 02:00:11;;;;;;;6.87;4.93;;;20.80;99.90;;;;;;5073904;28;20895;-59
2023/08/25 02:02:38;;;;;;;9.50;5.03;;;20.80;99.90;;;;;;5073923;28;20463;-59
2023/08/25 02:05:06;;;;;;;10.37;4.80;;;20.80;99.90;;;;;;5073905;28;20445;-59
2023/08/25 02:07:32;;;;;;;7.60;5.47;;;20.80;99.90;;;;;;5073818;28;20444;-59
2023/08/25 02:09:59;;;;;;;8.03;4.27;;;20.80;99.90;;;;;;5073732;28;20483;-59
2023/08/25 02:12:27;;;;;;;12.43;5.47;;;20.80;99.90;;;;;;5073600;28;20461;-59
2023/08/25 02:14:54;;;;;;;5.40;4.50;;;20.80;99.90;;;;;;5073719;28;20536;-59
2023/08/25 02:17:20;;;;;;;10.63;5.30;;;20.80;99.90;;;;;;5073752;28;20449;-59
2023/08/25 02:19:47;;;;;;;12.00;5.67;;;20.80;99.90;;;;;;5073837;28;20437;-60
2023/08/25 02:22:14;;;;;;;9.40;5.30;;;20.70;99.90;;;;;;5073721;28;20480;-59
2023/08/25 02:24:40;;;;;;;5.73;4.00;;;20.70;99.90;;;;;;5073962;28;20444;-59
2023/08/25 02:27:07;;;;;;;9.60;4.67;;;20.80;99.90;;;;;;5073586;28;20452;-59
2023/08/25 02:29:35;;;;;;;6.63;4.90;;;20.80;99.90;;;;;;5073586;28;20481;-59
2023/08/25 02:32:03;;;;;;;5.33;4.50;;;20.80;99.90;;;;;;5073285;28;20460;-59
2023/08/25 02:34:29;;;;;;;8.73;5.00;;;20.80;99.90;;;;;;5073336;28;20934;-59
2023/08/25 02:36:56;;;;;;;7.37;5.03;;;20.80;99.90;;;;;;5073619;28;20440;-59
2023/08/25 02:39:23;;;;;;;4.00;3.50;;;20.80;99.90;;;;;;5073474;28;20437;-59
2023/08/25 02:41:49;;;;;;;4.67;3.10;;;20.80;99.90;;;;;;5073409;28;20959;-59
2023/08/25 02:44:16;;;;;;;9.17;3.87;;;20.90;99.90;;;;;;5073479;28;20782;-59
2023/08/25 02:46:44;;;;;;;8.90;4.77;;;20.80;99.90;;;;;;5072687;28;20475;-59
2023/08/25 02:49:11;;;;;;;3.33;2.90;;;20.90;99.90;;;;;;5073320;28;20445;-59
2023/08/25 02:51:38;;;;;;;4.03;3.67;;;20.90;99.90;;;;;;5073267;28;20464;-59
2023/08/25 02:54:05;;;;;;;5.23;3.37;;;20.90;99.90;;;;;;5073355;28;20460;-59
2023/08/25 02:56:31;;;;;;;5.90;3.07;;;20.90;99.90;;;;;;5073204;28;20957;-59
2023/08/25 02:58:58;;;;;;;6.10;2.90;;;20.90;99.90;;;;;;5073316;28;20797;-59
2023/08/25 03:01:25;;;;;;;7.17;3.07;;;20.90;99.90;;;;;;5073268;28;20457;-59
2023/08/25 03:03:53;;;;;;;4.20;2.90;;;20.90;99.90;;;;;;5073158;28;20522;-59
2023/08/25 03:06:20;;;;;;;3.93;3.00;;;20.80;99.90;;;;;;5073207;28;20471;-59
2023/08/25 03:08:46;;;;;;;5.40;2.93;;;20.80;99.90;;;;;;5073185;28;20441;-59
2023/08/25 03:11:13;;;;;;;3.50;3.03;;;20.80;99.90;;;;;;5073113;28;20492;-59
2023/08/25 03:13:40;;;;;;;5.63;2.70;;;20.80;99.90;;;;;;5073460;28;20444;-59
2023/08/25 03:16:07;;;;;;;6.90;3.13;;;20.90;99.90;;;;;;5073140;28;20482;-59
2023/08/25 03:18:34;;;;;;;3.40;3.10;;;20.90;99.90;;;;;;5073200;28;20448;-59
2023/08/25 03:21:02;;;;;;;5.80;3.30;;;20.90;99.90;;;;;;5072902;28;20499;-59
2023/08/25 03:23:29;;;;;;;4.13;3.03;;;20.90;99.90;;;;;;5072946;28;20799;-59
2023/08/25 03:25:56;;;;;;;3.50;2.50;;;20.90;99.90;;;;;;5073018;28;20449;-59
2023/08/25 03:28:23;;;;;;;4.50;2.60;;;20.90;99.90;;;;;;5072907;28;20464;-59
2023/08/25 03:30:51;;;;;;;5.20;2.60;;;20.90;99.90;;;;;;5072946;28;20488;-59
2023/08/25 03:33:18;;;;;;;4.97;3.20;;;20.80;99.90;;;;;;5073030;28;20532;-59
2023/08/25 03:35:45;;;;;;;4.03;2.57;;;20.80;99.80;;;;;;5072930;28;20444;-59
2023/08/25 03:38:13;;;;;;;5.23;3.33;;;20.80;99.80;;;;;;5072823;28;20452;-59
2023/08/25 03:40:39;;;;;;;3.90;2.87;;;20.80;99.70;;;;;;5072814;28;20445;-59
2023/08/25 03:43:06;;;;;;;5.57;2.73;;;20.90;99.70;;;;;;5072587;28;20444;-59
2023/08/25 03:45:35;;;;;;;3.07;2.83;;;20.80;99.70;;;;;;5072818;28;20451;-59
2023/08/25 03:48:02;;;;;;;4.60;2.63;;;20.80;99.70;;;;;;5072776;28;20455;-59
2023/08/25 03:50:28;;;;;;;4.17;2.67;;;20.80;99.70;;;;;;5072984;28;20480;-59
2023/08/25 03:52:55;;;;;;;4.87;3.17;;;20.80;99.80;;;;;;5072724;28;20475;-59
2023/08/25 03:55:23;;;;;;;4.20;2.97;;;20.80;99.90;;;;;;5072762;28;20445;-59
2023/08/25 03:57:50;;;;;;;3.50;3.10;;;20.70;99.90;;;;;;5074794;28;20471;-59
2023/08/25 04:00:17;;;;;;;3.77;2.80;;;20.70;99.90;;;;;;5075964;28;20433;-59
2023/08/25 04:02:44;;;;;;;4.17;3.43;;;20.70;99.70;;;;;;5076190;28;20460;-59
2023/08/25 04:05:11;;;;;;;5.13;2.90;;;20.70;99.60;;;;;;5076528;28;20448;-59
2023/08/25 04:07:37;;;;;;;5.60;3.50;;;20.70;99.70;;;;;;5076238;28;20436;-59
2023/08/25 04:10:04;;;;;;;3.13;2.87;;;20.70;99.60;;;;;;5076047;28;20472;-59
2023/08/25 04:12:32;;;;;;;7.23;3.40;;;20.60;99.40;;;;;;5076026;28;20504;-58
2023/08/25 04:14:59;;;;;;;8.27;4.33;;;20.60;99.50;;;;;;5076029;28;20452;-58
2023/08/25 04:17:26;;;;;;;6.60;3.30;;;20.60;99.70;;;;;;5076045;28;20441;-59
2023/08/25 04:19:52;;;;;;;5.17;3.30;;;20.60;99.90;;;;;;5075528;28;20445;-59
2023/08/25 04:22:19;;;;;;;5.10;4.13;;;20.50;99.90;;;;;;5075378;28;20978;-59
2023/08/25 04:24:46;;;;;;;5.40;3.63;;;20.60;99.90;;;;;;5076429;28;20448;-58
2023/08/25 04:27:12;;;;;;;7.57;3.80;;;20.50;99.90;;;;;;5075337;28;20966;-59
2023/08/25 04:29:40;;;;;;;4.30;3.90;;;20.50;99.90;;;;;;5075337;28;20844;-59
2023/08/25 04:32:07;;;;;;;8.90;3.70;;;20.50;99.90;;;;;;5075934;28;20464;-59
2023/08/25 04:34:34;;;;;;;4.60;4.00;;;20.50;99.90;;;;;;5075791;28;20535;-59
2023/08/25 04:37:01;;;;;;;5.23;3.70;;;20.50;99.90;;;;;;5075553;28;20455;-59
2023/08/25 04:39:28;;;;;;;3.93;3.10;;;20.50;99.90;;;;;;5075663;28;20497;-59
2023/08/25 04:41:55;;;;;;;5.10;3.13;;;20.50;99.90;;;;;;5075048;28;20456;-59
2023/08/25 04:44:22;;;;;;;3.53;3.10;;;20.50;99.90;;;;;;5075467;28;20456;-58
2023/08/25 04:46:50;;;;;;;4.23;3.20;;;20.50;99.90;;;;;;5075051;28;20989;-59
2023/08/25 04:49:17;;;;;;;4.43;3.97;;;20.50;99.90;;;;;;5075446;28;20467;-59
2023/08/25 04:51:43;;;;;;;3.60;3.30;;;20.50;99.90;;;;;;5075282;28;20507;-59
2023/08/25 04:54:10;;;;;;;6.03;3.70;;;20.50;99.90;;;;;;5075077;28;20956;-59
2023/08/25 04:56:37;;;;;;;4.67;3.30;;;20.50;99.90;;;;;;5075555;28;20441;-59
2023/08/25 04:59:04;;;;;;;8.30;3.90;;;20.50;99.80;;;;;;5076089;28;20453;-59
2023/08/25 05:01:31;;;;;;;5.43;3.43;;;20.50;99.70;;;;;;5075253;28;20465;-59
2023/08/25 05:03:59;;;;;;;3.87;3.40;;;20.50;99.70;;;;;;5075375;28;20448;-58
2023/08/25 05:06:26;;;;;;;4.53;4.07;;;20.50;99.60;;;;;;5075278;28;20444;-58
2023/08/25 05:08:54;;;;;;;3.57;3.27;;;20.50;99.60;;;;;;5074511;28;20448;-59
2023/08/25 05:11:20;;;;;;;6.17;3.50;;;20.50;99.60;;;;;;5075228;28;20499;-58
2023/08/25 05:13:47;;;;;;;7.30;3.83;;;20.60;99.60;;;;;;5075263;28;20441;-58
2023/08/25 05:16:17;;;;;;;4.47;3.53;;;20.50;99.70;;;;;;5074595;28;20946;-58
2023/08/25 05:18:44;;;;;;;5.90;3.80;;;20.50;99.80;;;;;;5075050;28;20483;-58
2023/08/25 05:21:12;;;;;;;4.73;4.10;;;20.50;99.60;;;;;;5074672;28;20483;-58
2023/08/25 05:23:46;;;;;;;4.90;3.57;;;20.50;99.60;;;;;;5074749;28;20448;-58
2023/08/25 05:26:13;;;;;;;6.03;4.20;;;20.60;99.70;;;;;;5074780;28;20456;-58
2023/08/25 05:28:39;;;;;;;6.70;4.57;;;20.60;99.90;;;;;;5074564;28;20954;-58
2023/08/25 05:31:06;;;;;;;9.83;5.20;;;20.60;99.90;;;;;;5074617;28;20484;-58
2023/08/25 05:33:33;;;;;;;5.07;4.57;;;20.70;99.90;;;;;;5074829;28;20468;-58
2023/08/25 05:36:00;;;;;;;10.70;5.33;;;20.70;99.90;;;;;;5074855;28;20444;-58
2023/08/25 05:38:28;;;;;;;6.00;4.33;;;20.70;99.90;;;;;;5074705;28;20444;-58
2023/08/25 05:40:55;;;;;;;6.13;3.80;;;20.60;99.90;;;;;;5075316;28;20444;-58
2023/08/25 05:43:22;;;;;;;4.53;3.67;;;20.60;99.90;;;;;;5075697;28;20451;-58
2023/08/25 05:45:48;;;;;;;8.90;4.57;;;20.70;99.90;;;;;;5074978;28;20448;-58
2023/08/25 05:48:15;;;;;;;8.23;4.53;;;20.70;99.90;;;;;;5074444;28;20794;-58
2023/08/25 05:50:42;;;;;;;4.93;4.07;;;20.70;99.90;;;;;;5074164;28;20503;-59
2023/08/25 05:53:10;;;;;;;8.00;4.10;;;20.80;99.90;;;;;;5074021;28;20845;-58
2023/08/25 05:55:38;;;;;;;6.00;5.03;;;20.80;99.90;;;;;;5074183;28;20499;-58
2023/08/25 05:58:05;;;;;;;9.67;4.00;;;20.80;99.90;;;;;;5074149;28;20491;-58
2023/08/25 06:00:32;;;;;;;7.87;4.27;;;20.90;99.90;;;;;;5074156;28;20452;-58
2023/08/25 06:02:58;;;;;;;6.83;3.83;;;20.90;99.90;;;;;;5074072;28;20461;-58
2023/08/25 06:05:25;;;;;;;6.93;4.90;;;21.00;99.90;;;;;;5073775;28;20809;-58
2023/08/25 06:07:52;;;;;;;5.97;4.30;;;21.10;99.90;;;;;;5074679;28;20799;-58
2023/08/25 06:10:18;;;;;;;7.60;4.63;;;21.20;99.90;;;;;;5075410;28;20451;-58
2023/08/25 06:12:46;;;;;;;7.50;5.47;;;21.20;99.90;;;;;;5075270;28;20460;-58
2023/08/25 06:15:13;;;;;;;5.43;4.90;;;21.30;99.90;;;;;;5073700;28;20440;-59
2023/08/25 06:17:40;;;;;;;6.60;5.10;;;21.40;99.90;;;;;;5073505;28;20440;-58
2023/08/25 06:20:08;;;;;;;6.53;4.27;;;21.50;99.90;;;;;;5072987;28;21024;-59
2023/08/25 06:22:34;;;;;;;6.00;5.30;;;21.60;99.90;;;;;;5072904;28;20487;-58
2023/08/25 06:25:01;;;;;;;8.50;5.40;;;21.70;99.90;;;;;;5073332;28;20854;-59
2023/08/25 06:27:28;;;;;;;9.87;5.00;;;21.70;99.90;;;;;;5073403;28;20964;-58
2023/08/25 06:29:56;;;;;;;8.80;4.93;;;21.70;99.90;;;;;;5073619;28;20854;-59
2023/08/25 06:32:23;;;;;;;5.73;5.13;;;21.80;99.90;;;;;;5073310;28;20572;-59
2023/08/25 06:34:53;;;;;;;7.23;5.27;;;21.90;99.90;;;;;;5073528;28;20444;-59
2023/08/25 06:37:19;;;;;;;5.40;4.17;;;22.00;99.90;;;;;;5073451;28;20850;-59
2023/08/25 06:39:47;;;;;;;8.57;4.90;;;22.10;99.90;;;;;;5073125;28;20816;-59
2023/08/25 06:42:14;;;;;;;4.90;3.70;;;22.20;99.80;;;;;;5072924;28;20837;-59
2023/08/25 06:44:41;;;;;;;10.17;5.37;;;22.30;99.70;;;;;;5073383;28;20449;-59
2023/08/25 06:47:09;;;;;;;16.13;6.70;;;22.40;99.50;;;;;;5073369;28;20448;-60
2023/08/25 06:49:35;;;;;;;17.43;6.47;;;22.50;98.90;;;;;;5072961;28;20964;-59
2023/08/25 06:52:02;;;;;;;7.80;5.57;;;22.70;98.30;;;;;;5072883;28;20484;-59
2023/08/25 06:54:29;;;;;;;9.90;5.43;;;22.70;98.20;;;;;;5073369;28;20448;-59
2023/08/25 06:56:56;;;;;;;7.63;5.67;;;22.70;98.30;;;;;;5073215;28;20472;-59
2023/08/25 06:59:23;;;;;;;5.70;4.97;;;22.80;98.50;;;;;;5066379;28;20445;-60
2023/08/25 07:01:50;;;;;;;11.07;6.00;;;22.90;98.30;;;;;;5061340;28;20865;-60
2023/08/25 07:04:19;;;;;;;7.93;5.13;;;23.00;98.00;;;;;;5054532;28;20454;-60
2023/08/25 07:06:46;;;;;;;9.83;5.30;;;23.10;97.80;;;;;;5063941;28;20451;-60
2023/08/25 07:09:13;;;;;;;7.70;6.13;;;23.00;97.70;;;;;;5054105;28;20458;-59
2023/08/25 07:11:40;;;;;;;9.60;5.57;;;22.80;98.20;;;;;;5069732;28;20530;-57
2023/08/25 07:14:06;;;;;;;11.93;5.37;;;22.50;99.00;;;;;;5073059;28;20441;-57
2023/08/25 07:16:33;;;;;;;14.57;6.60;;;22.30;99.90;;;;;;5073168;28;20445;-58
2023/08/25 07:19:00;;;;;;;45.87;7.70;;;22.10;99.90;;;;;;5073007;28;20527;-57
2023/08/25 07:21:29;;;;;;;12.00;5.43;;;21.90;99.90;;;;;;5072599;28;20479;-57
2023/08/25 07:23:56;;;;;;;13.73;5.33;;;21.90;99.90;;;;;;5070914;28;20440;-57
2023/08/25 07:26:25;;;;;;;6.47;4.60;;;21.80;99.90;;;;;;5053000;28;20473;-57
2023/08/25 07:28:52;;;;;;;12.70;5.77;;;21.80;99.90;;;;;;5052801;28;20962;-58
2023/08/25 07:31:19;;;;;;;14.17;5.87;;;21.80;99.90;;;;;;5052676;28;20489;-59
2023/08/25 07:33:45;;;;;;;6.10;5.50;;;21.70;99.90;;;;;;5056525;28;20445;-59
2023/08/25 07:36:12;;;;;;;14.23;6.17;;;21.60;99.90;;;;;;5056826;28;20460;-56
2023/08/25 07:38:40;;;;;;;11.70;6.30;;;21.50;99.90;;;;;;5056344;28;20449;-58
2023/08/25 07:41:07;;;;;;;15.90;7.20;;;21.30;99.90;;;;;;5057328;28;20465;-58
2023/08/25 07:43:33;;;;;;;17.77;7.13;;;21.20;99.90;;;;;;5056143;28;20919;-57
2023/08/25 07:46:00;;;;;;;19.97;8.60;;;21.20;99.90;;;;;;5056210;28;20915;-57
2023/08/25 07:48:27;;;;;;;13.63;7.20;;;21.20;99.90;;;;;;5056473;28;20453;-57
2023/08/25 07:50:54;;;;;;;15.80;7.60;;;21.20;99.90;;;;;;5056169;28;20943;-57
2023/08/25 07:53:20;;;;;;;18.07;6.47;;;21.20;99.90;;;;;;5056838;28;20446;-57
2023/08/25 07:55:48;;;;;;;11.43;6.30;;;21.20;99.90;;;;;;5056551;28;20820;-58
2023/08/25 07:58:15;;;;;;;10.13;5.80;;;21.20;99.90;;;;;;5056590;28;20448;-57
2023/08/25 08:00:43;;;;;;;18.70;7.47;;;21.30;99.90;;;;;;5055815;28;20980;-58
2023/08/25 08:03:10;;;;;;;15.20;7.50;;;21.10;99.90;;;;;;5056176;28;20808;-58
2023/08/25 08:05:38;;;;;;;15.77;8.60;;;20.80;99.90;;;;;;5055864;28;20979;-59
2023/08/25 08:08:05;;;;;;;13.53;7.20;;;20.80;99.90;;;;;;5056115;28;20446;-58
2023/08/25 08:10:32;;;;;;;12.30;7.70;;;20.80;99.90;;;;;;5055770;28;20940;-58
2023/08/25 08:13:00;;;;;;;13.57;6.73;;;20.80;99.90;;;;;;5055588;28;20492;-57
2023/08/25 08:15:27;;;;;;;11.53;6.30;;;20.80;99.90;;;;;;5056140;28;20481;-57
2023/08/25 08:17:54;;;;;;;9.17;4.20;;;20.80;99.90;;;;;;5055990;28;20446;-58
2023/08/25 08:20:21;;;;;;;12.10;4.60;;;20.70;99.90;;;;;;5055929;28;20441;-58
2023/08/25 08:22:47;;;;;;;9.93;3.50;;;20.70;99.90;;;;;;5055421;28;20909;-58
2023/08/25 08:25:14;;;;;;;8.40;3.23;;;20.60;99.90;;;;;;5055802;28;20448;-58
2023/08/25 08:27:42;;;;;;;6.10;2.60;;;20.60;99.90;;;;;;5055839;28;20453;-57
2023/08/25 08:30:13;;;;;;;7.67;3.13;;;20.60;99.90;;;;;;5055736;28;20446;-58
2023/08/25 08:32:40;;;;;;;3.50;2.37;;;20.70;99.90;;;;;;5055679;28;20473;-60
2023/08/25 08:35:08;;;;;;;5.37;2.10;;;20.80;99.90;;;;;;5055690;28;20441;-60
2023/08/25 08:37:35;;;;;;;4.27;2.13;;;21.00;99.90;;;;;;5055288;28;20987;-60
2023/08/25 08:40:03;;;;;;;7.00;2.57;;;21.20;99.90;;;;;;5055589;28;20524;-61
2023/08/25 08:42:32;;;;;;;4.37;2.20;;;21.30;99.90;;;;;;5055396;28;20552;-60
2023/08/25 08:45:03;;;;;;;3.60;2.10;;;21.40;99.90;;;;;;5054132;28;20936;-60
2023/08/25 08:47:32;;;;;;;2.87;1.97;;;21.60;99.90;;;;;;5055435;28;20426;-60
2023/08/25 08:50:00;;;;;;;7.07;1.83;;;21.80;99.90;;;;;;5055816;28;20450;-60
2023/08/25 08:52:27;;;;;;;7.20;1.97;;;22.00;99.90;;;;;;5055957;28;20489;-60
2023/08/25 08:54:57;;;;;;;6.67;2.03;;;22.30;99.90;;;;;;5055868;28;20448;-60
2023/08/25 08:57:24;;;;;;;3.10;2.20;;;22.40;99.90;;;;;;5054998;28;20825;-60
2023/08/25 08:59:51;;;;;;;3.87;2.17;;;22.40;99.90;;;;;;5055297;28;20824;-60
2023/08/25 09:02:20;;;;;;;4.40;1.80;;;22.50;99.90;;;;;;5055367;28;20469;-60
2023/08/25 09:04:50;;;;;;;4.40;2.17;;;22.50;99.90;;;;;;5055440;28;20449;-60
2023/08/25 09:07:19;;;;;;;4.30;2.43;;;22.50;99.90;;;;;;5054941;28;20437;-60
2023/08/25 09:09:46;;;;;;;4.67;2.50;;;22.60;99.90;;;;;;5055147;28;20444;-60
2023/08/25 09:12:15;;;;;;;6.37;1.83;;;22.70;99.90;;;;;;5054626;28;21058;-60
2023/08/25 09:14:42;;;;;;;4.43;2.10;;;22.90;99.90;;;;;;5054720;28;20473;-60
2023/08/25 09:17:14;;;;;;;3.30;2.33;;;23.10;99.90;;;;;;5054957;28;20442;-60
2023/08/25 09:19:41;;;;;;;2.60;2.00;;;23.20;99.90;;;;;;5054976;28;20426;-60
2023/08/25 09:22:11;;;;;;;2.30;2.10;;;23.40;99.90;;;;;;5054755;28;20476;-60
2023/08/25 09:24:38;;;;;;;4.53;2.00;;;23.70;99.90;;;;;;5054795;28;20480;-60
2023/08/25 09:27:05;;;;;;;3.70;1.73;;;23.90;99.60;;;;;;5054821;28;20498;-60
2023/08/25 09:29:41;;;;;;;3.47;1.87;;;24.10;99.00;;;;;;5054433;28;20966;-60
2023/08/25 09:32:13;;;;;;;4.63;1.87;;;24.20;98.30;;;;;;5054680;28;20517;-60
2023/08/25 09:34:40;;;;;;;4.03;1.93;;;24.20;97.70;;;;;;5054615;28;20426;-60
2023/08/25 09:37:07;;;;;;;3.17;2.00;;;24.20;97.20;;;;;;5054582;28;20450;-60
2023/08/25 09:39:42;;;;;;;3.60;1.70;;;24.10;97.10;;;;;;5054304;28;21066;-60
2023/08/25 09:42:10;;;;;;;2.70;2.47;;;24.00;97.70;;;;;;5054547;28;20496;-60
2023/08/25 09:44:37;;;;;;;3.00;1.83;;;23.90;97.60;;;;;;5054553;28;20453;-61
2023/08/25 09:47:06;;;;;;;3.60;2.10;;;23.80;97.60;;;;;;5054361;28;20446;-60
2023/08/25 09:49:39;;;;;;;4.20;2.00;;;23.60;97.90;;;;;;5054488;28;20947;-60
2023/08/25 09:52:06;;;;;;;3.47;1.90;;;23.50;98.50;;;;;;5054249;28;20516;-60
2023/08/25 09:54:35;;;;;;;3.53;2.23;;;23.30;99.10;;;;;;5053957;28;20496;-60
2023/08/25 09:57:02;;;;;;;3.40;1.70;;;23.10;99.50;;;;;;5054104;28;20449;-60
2023/08/25 09:59:29;;;;;;;3.10;1.80;;;23.00;99.80;;;;;;5054218;28;20442;-58
2023/08/25 10:01:57;;;;;;;3.73;1.67;;;22.90;99.90;;;;;;5054156;28;20454;-57
2023/08/25 10:04:24;;;;;;;4.60;2.20;;;22.70;99.90;;;;;;5053932;28;20487;-58
2023/08/25 10:06:52;;;;;;;4.30;2.30;;;22.70;99.90;;;;;;5053991;28;20445;-59
2023/08/25 10:09:20;;;;;;;3.70;2.00;;;22.50;99.90;;;;;;5053921;28;20441;-59
2023/08/25 10:11:49;;;;;;;5.77;2.33;;;22.40;99.90;;;;;;5053717;28;20477;-58
2023/08/25 10:14:18;;;;;;;6.73;2.80;;;22.40;99.90;;;;;;5053792;28;20498;-59
2023/08/25 10:16:49;;;;;;;3.23;2.73;;;22.30;99.90;;;;;;5053760;28;20449;-58
2023/08/25 10:19:20;;;;;;;5.20;2.30;;;22.30;99.90;;;;;;5053828;28;20799;-58
2023/08/25 10:21:50;;;;;;;8.83;3.57;;;22.20;99.90;;;;;;5053550;28;20476;-58
2023/08/25 10:24:19;;;;;;;5.87;3.07;;;22.10;99.90;;;;;;5053360;28;20969;-59
2023/08/25 10:26:48;;;;;;;4.60;3.10;;;22.00;99.90;;;;;;5053552;28;20869;-58
2023/08/25 10:29:17;;;;;;;7.70;3.00;;;22.00;99.90;;;;;;5053638;28;20499;-59
2023/08/25 10:31:48;;;;;;;4.33;3.10;;;21.90;99.90;;;;;;5053346;28;20461;-59
2023/08/25 10:34:31;;;;;;;3.40;2.17;;;21.90;99.90;;;;;;5053255;28;20963;-58
2023/08/25 10:37:04;;;;;;;5.80;2.57;;;21.90;99.90;;;;;;5053514;28;20484;-59
2023/08/25 10:39:46;;;;;;;7.43;2.70;;;21.90;99.90;;;;;;5053433;28;20422;-60
2023/08/25 10:42:18;;;;;;;4.83;2.67;;;21.90;99.90;;;;;;5053391;28;20490;-60
2023/08/25 10:44:45;;;;;;;5.83;2.10;;;21.90;99.90;;;;;;5053493;28;20821;-60
2023/08/25 10:47:12;;;;;;;2.20;1.67;;;21.90;99.90;;;;;;5053035;28;21032;-60
2023/08/25 10:49:39;;;;;;;2.87;2.07;;;22.00;99.90;;;;;;5053261;28;20453;-61
2023/08/25 10:52:15;;;;;;;3.93;1.80;;;22.20;99.90;;;;;;5053033;28;20485;-61
2023/08/25 10:54:45;;;;;;;4.03;1.90;;;22.50;99.90;;;;;;5053198;28;20958;-61
2023/08/25 10:57:40;;;;;;;3.63;1.93;;;22.90;99.90;;;;;;5053190;28;20464;-61
2023/08/25 11:00:28;;;;;;;3.17;2.50;;;23.30;99.90;;;;;;5052943;28;20899;-61
2023/08/25 11:02:55;;;;;;;4.90;3.17;;;23.60;99.90;;;;;;5053073;28;20511;-61
2023/08/25 11:05:41;;;;;;;4.93;3.00;;;23.80;99.90;;;;;;5053034;28;20454;-61
2023/08/25 11:08:24;;;;;;;4.17;3.40;;;23.80;99.90;;;;;;5055631;28;20947;-60
2023/08/25 11:11:10;;;;;;;5.50;4.40;;;23.90;99.90;;;;;;5057468;28;20433;-60
2023/08/25 11:13:40;;;;;;;4.33;3.90;;;23.80;99.80;;;;;;5056932;28;20469;-61
2023/08/25 11:16:11;;;;;;;4.30;3.87;;;23.80;99.70;;;;;;5057514;28;20483;-61
2023/08/25 11:18:40;;;;;;;5.90;3.97;;;23.70;99.90;;;;;;5057246;28;20472;-61
2023/08/25 11:21:06;;;;;;;5.00;3.47;;;23.60;99.90;;;;;;5057550;28;20481;-61
2023/08/25 11:23:41;;;;;;;3.20;2.67;;;23.50;99.80;;;;;;5057264;28;20418;-60
2023/08/25 11:26:09;;;;;;;4.67;2.90;;;23.40;99.90;;;;;;5056789;28;20912;-59
2023/08/25 11:28:36;;;;;;;6.60;3.43;;;23.30;99.90;;;;;;5056608;28;20821;-59
2023/08/25 11:31:04;;;;;;;3.20;2.03;;;23.20;99.90;;;;;;5057012;28;20468;-60
2023/08/25 11:33:32;;;;;;;2.40;2.20;;;23.20;99.90;;;;;;5056746;28;20485;-60
2023/08/25 11:36:00;;;;;;;3.50;1.90;;;23.20;99.90;;;;;;5056762;28;20441;-61
2023/08/25 11:38:28;;;;;;;3.60;2.00;;;23.30;99.90;;;;;;5056689;28;20473;-61
2023/08/25 11:40:56;;;;;;;4.07;2.20;;;23.50;99.90;;;;;;5056236;28;20935;-61
2023/08/25 11:43:28;;;;;;;2.80;2.30;;;23.90;99.90;;;;;;5056609;28;20473;-61
2023/08/25 11:45:54;;;;;;;2.90;2.17;;;24.20;99.90;;;;;;5056379;28;20848;-62
2023/08/25 11:48:23;;;;;;;3.23;1.93;;;24.70;98.80;;;;;;5056745;28;20445;-62
2023/08/25 11:50:50;;;;;;;2.50;2.30;;;24.80;97.60;;;;;;5056328;28;20978;-62
2023/08/25 11:53:16;;;;;;;3.70;2.20;;;24.90;97.60;;;;;;5056976;28;20484;-60
2023/08/25 11:55:43;;;;;;;2.20;2.00;;;25.10;97.50;;;;;;5056924;28;20496;-60
2023/08/25 11:58:11;;;;;;;3.10;1.90;;;25.30;96.70;;;;;;5056589;28;20437;-60
2023/08/25 12:00:39;;;;;;;3.50;2.37;;;25.40;96.20;;;;;;5056669;28;20449;-60
2023/08/25 12:03:06;;;;;;;2.63;2.40;;;25.20;96.00;;;;;;5056318;28;20441;-61
2023/08/25 12:05:36;;;;;;;3.10;2.40;;;25.00;96.30;;;;;;5056471;28;20479;-61
2023/08/25 12:08:04;;;;;;;3.20;2.63;;;24.80;97.00;;;;;;5056361;28;20426;-61
2023/08/25 12:10:35;;;;;;;2.77;2.47;;;24.70;97.50;;;;;;5056114;28;20441;-61
2023/08/25 12:13:02;;;;;;;3.33;2.20;;;24.70;97.60;;;;;;5055988;28;20538;-61
2023/08/25 12:15:40;;;;;;;3.43;3.13;;;24.60;97.60;;;;;;5055685;28;20894;-61
2023/08/25 12:18:07;;;;;;;4.43;3.73;;;24.50;97.70;;;;;;5055887;28;20481;-61
2023/08/25 12:20:35;;;;;;;4.50;4.10;;;24.40;97.90;;;;;;5055901;28;20477;-61
2023/08/25 12:23:02;;;;;;;5.17;4.30;;;24.30;98.10;;;;;;5055842;28;20449;-59
2023/08/25 12:25:31;;;;;;;4.90;3.97;;;24.20;98.30;;;;;;5055849;28;20449;-59
2023/08/25 12:27:59;;;;;;;15.37;6.70;;;24.10;98.70;;;;;;5055784;28;20438;-61
2023/08/25 12:30:27;;;;;;;7.50;5.23;;;23.90;99.20;;;;;;5055981;28;20449;-60
2023/08/25 12:32:55;;;;;;;5.80;4.70;;;23.80;99.90;;;;;;5055675;28;20485;-60
2023/08/25 12:35:22;;;;;;;5.50;5.07;;;23.80;99.90;;;;;;5055672;28;20453;-60
2023/08/25 12:37:51;;;;;;;5.47;4.40;;;23.80;99.90;;;;;;5055326;28;20830;-62
2023/08/25 12:40:20;;;;;;;5.97;5.03;;;23.70;99.90;;;;;;5055634;28;20527;-61
2023/08/25 12:42:47;;;;;;;5.00;4.50;;;23.70;99.90;;;;;;5055436;28;20495;-60
2023/08/25 12:45:14;;;;;;;5.00;4.20;;;23.70;99.90;;;;;;5055502;28;20445;-59
2023/08/25 12:47:41;;;;;;;3.63;3.20;;;23.70;99.90;;;;;;5055418;28;20445;-60
2023/08/25 12:50:08;;;;;;;5.77;3.70;;;23.70;99.90;;;;;;5055408;28;20449;-61